首页
METAR-TAF:

METAR-TAF

机场 :

Volk Field Air National Guard Base

Camp Douglas, 威斯康辛州, 美国

纬度: 43-56N, 经度: 090-16W, 海拔: 277米

当前天气观测

该预报发布于1小时和16分钟前的04:55 UTC
风速11节,风向南转南东
温度 26°C
湿度 70%
气压 1003 hPa
能見度: 16.1公里
天空无云

METAR: KVOK 250455Z AUTO 16011KT 10SM CLR 26/20 A2962 RMK AO2 PRESFR SLP027 T02550198 $

时间: 01:11 (06:11 UTC)

预报

该预报发布于11小时和11分钟前的19:00 UTC
预报有效从24日的 17点(UTC)到 25日的 23点(UTC)
风速7节,风向南转南东
能见度10公里或以上
少量云层高于15000英尺
成为
从 24日的 21点(UTC)到 24日的 22点(UTC)
风速12节,风向,有时为18节阵风
能见度10公里或以上
多云层高于4000英尺
短暂存在
从 25日的 06点(UTC)到 25日的 10点(UTC)
风速35节,风向多变,有时为50节阵风
能見度: 1600
阴天层高于600英尺, 积雨云.
雷暴, 大雨, 冰雹
成为
从 25日的 11点(UTC)到 25日的 12点(UTC)
风速8节,风向西
能見度: 2509
多云层高于3000英尺

TAF: KVOK 241900Z 2417/2523 16007KT 9999 FEW150 QNH2985INS BECMG 2421/2422 17012G18KT 9999 BKN040 QNH2980INS TEMPO 2506/2510 VRB35G50KT 1600 +TSRAGR OVC006CB BECMG 2511/2512 26008KT 9999 BKN030 QNH2966INS TX28/2421Z TN22/2506Z LAST NO AMDS AFT 2421 NEXT 2509

超过4000个机场的气象观测和天气预报(METAR&TAF报告)。

可查询的气象台以黄色和红色小点在地图上表示。

将鼠标移到小点上方,可查看气象台名称。

然后点击查看天气观测和预报。

如需切换地图:点击带黑十字的绿色按钮放大地图;点击带横线的绿色按钮缩小地图;或者点击绿色箭头查看邻近地区的地图。


METAR-TAF: